Airport View

Enter AWOS ICAO identifier for current METAR.

ex. KFNL

KPWA 191153Z 32013G19KT 10SM CLR 13/10 A2986 RMK AO2 SLP102 7//// T01330100 10156 20122 53025 $

19 May 2019 12:27

Phone: 405-798-2013

Other Area AWOS: KHSD - KOKC - KRCE - KTIK

TAF KOKC 191123Z 1912/2012 33010KT P6SM FEW250 FM192100 10008KT P6SM FEW050